Eureka, Canada
Current Conditions -  °F | °C
As of 9:00 AM on Tuesday 21 Oct 2014 (Local Time) from CWEU Reporting Station
Light Snow Light Snow  
Wind Chill: -27°   Ceiling: 7000
Heat Index: -9°   Visibility: 5mi
Dew Point: -18°   Wind: 9mph
Humidity: 65%   Direction: 270°W
Pressure: 29.99"   Gusts: NA
Location:  79.98°N, 85.83°W
Report Text: CWEU 211400Z 27008KT 5SM -SN OVC070 M23/M28 A2999 RMK AC6SLP157
Loading
Personal Weather Stations






























Interactive Weather Map
Tropical Storm Tracking
New forecast layout! Learn more

10-Day Weather Forecast

Advertisements
Track Severe Weather on mobile